Time;durP1;ratioP1;P1;durP2;ratioP2;P2;SDS_P1;SDS_P2;PMS_P1;PMS_P2;Temp;Humidity;BMP_temperature;BMP_pressure;BME280_temperature;BME280_humidity;BME280_pressure;Samples;Min_cycle;Max_cycle;Signal;HPM_P1;HPM_P2
2022/04/20 00:01:24;;;;;;;4.75;2.72;;;12.40;55.60;;;;;;5036559;28;20507;-31
2022/04/20 00:03:50;;;;;;;4.10;2.78;;;12.40;55.60;;;;;;5054358;28;20491;-32
2022/04/20 00:06:16;;;;;;;3.70;2.83;;;12.40;55.50;;;;;;5054584;28;20025;-30
2022/04/20 00:08:41;;;;;;;3.55;2.55;;;12.40;55.40;;;;;;5054401;28;20021;-33
2022/04/20 00:11:08;;;;;;;3.95;2.63;;;12.40;55.40;;;;;;5036404;28;20356;-33
2022/04/20 00:13:34;;;;;;;3.70;2.53;;;12.40;55.30;;;;;;5054229;28;20067;-32
2022/04/20 00:15:59;;;;;;;4.00;2.58;;;12.40;55.20;;;;;;5054356;28;20029;-33
2022/04/20 00:18:25;;;;;;;3.22;2.55;;;12.30;55.10;;;;;;5054047;28;20396;-33
2022/04/20 00:20:51;;;;;;;3.25;2.35;;;12.30;55.00;;;;;;5054161;28;20025;-31
2022/04/20 00:23:17;;;;;;;2.90;2.53;;;12.30;55.00;;;;;;5053934;28;20451;-30
2022/04/20 00:25:42;;;;;;;4.03;2.78;;;12.30;55.00;;;;;;5053930;28;20048;-31
2022/04/20 00:28:08;;;;;;;3.97;2.60;;;12.30;54.90;;;;;;5054068;28;20082;-30
2022/04/20 00:30:33;;;;;;;3.47;2.22;;;12.20;54.90;;;;;;5054004;28;20044;-34
2022/04/20 00:32:59;;;;;;;4.07;2.92;;;12.20;54.90;;;;;;5054284;28;20063;-34
2022/04/20 00:35:25;;;;;;;2.60;2.20;;;12.20;54.90;;;;;;5054132;28;20438;-31
2022/04/20 00:37:51;;;;;;;3.00;2.30;;;12.10;54.80;;;;;;5053760;28;20021;-31
2022/04/20 00:40:17;;;;;;;3.35;2.20;;;12.10;54.80;;;;;;5053644;28;20017;-31
2022/04/20 00:42:43;;;;;;;3.95;2.45;;;12.10;54.80;;;;;;5053565;28;20021;-31
2022/04/20 00:45:10;;;;;;;4.63;2.30;;;12.10;54.80;;;;;;5054000;28;20492;-31
2022/04/20 00:47:45;;;;;;;4.78;2.40;;;12.10;54.90;;;;;;5053607;28;20052;-37
2022/04/20 00:50:12;;;;;;;4.90;2.40;;;12.10;55.50;;;;;;5053617;28;20036;-32
2022/04/20 00:52:38;;;;;;;2.83;2.05;;;12.00;54.80;;;;;;5035598;28;20025;-34
2022/04/20 00:55:06;;;;;;;3.10;2.15;;;12.00;54.80;;;;;;5053415;28;20029;-31
2022/04/20 00:57:32;;;;;;;4.65;2.30;;;12.00;54.70;;;;;;5053064;28;20035;-32
2022/04/20 01:00:01;;;;;;;3.65;2.35;;;12.00;54.80;;;;;;5053426;28;20021;-32
2022/04/20 01:02:30;;;;;;;3.67;2.03;;;11.90;54.70;;;;;;5053233;28;20025;-30
2022/04/20 01:04:56;;;;;;;3.35;2.25;;;11.90;54.70;;;;;;5053339;28;20538;-34
2022/04/20 01:07:22;;;;;;;3.47;2.10;;;11.90;54.60;;;;;;5053412;28;20021;-30
2022/04/20 01:09:48;;;;;;;3.90;2.20;;;11.90;54.60;;;;;;5053034;28;20063;-30
2022/04/20 01:12:16;;;;;;;3.85;2.10;;;11.90;54.50;;;;;;5052973;28;20035;-34
2022/04/20 01:14:42;;;;;;;3.22;2.28;;;11.90;54.50;;;;;;5053003;28;20051;-32
2022/04/20 01:17:07;;;;;;;3.15;2.08;;;11.90;54.40;;;;;;5053188;28;20108;-30
2022/04/20 01:19:40;;;;;;;3.13;2.40;;;11.90;54.30;;;;;;5053164;28;20039;-29
2022/04/20 01:22:07;;;;;;;3.17;2.10;;;11.80;54.20;;;;;;5053035;28;20057;-31
2022/04/20 01:24:34;;;;;;;3.45;1.85;;;11.80;54.10;;;;;;5052994;28;20473;-31
2022/04/20 01:27:01;;;;;;;2.20;1.85;;;11.80;54.10;;;;;;5053049;28;20502;-32
2022/04/20 01:29:27;;;;;;;4.20;2.20;;;11.80;54.00;;;;;;5052623;28;20044;-30
2022/04/20 01:31:53;;;;;;;3.15;1.80;;;11.70;53.90;;;;;;5052819;28;20044;-29
2022/04/20 01:34:18;;;;;;;2.38;1.80;;;11.70;53.90;;;;;;5053142;28;20064;-32
2022/04/20 01:36:44;;;;;;;2.45;2.10;;;11.70;53.90;;;;;;5052576;28;20017;-29
2022/04/20 01:39:10;;;;;;;4.32;2.00;;;11.70;53.80;;;;;;5052405;28;20473;-29
2022/04/20 01:41:36;;;;;;;3.88;2.03;;;11.70;53.80;;;;;;5052927;28;20025;-31
2022/04/20 01:44:02;;;;;;;3.53;2.28;;;11.70;53.80;;;;;;5052485;28;20409;-32
2022/04/20 01:46:28;;;;;;;2.50;2.00;;;11.60;53.70;;;;;;5051534;28;20456;-30
2022/04/20 01:48:53;;;;;;;2.13;1.90;;;11.60;53.70;;;;;;5052289;28;20036;-32
2022/04/20 01:54:03;;;;;;;3.53;1.67;;;11.60;53.70;;;;;;5037796;28;20055;-35
2022/04/20 01:56:28;;;;;;;2.65;1.80;;;11.60;53.70;;;;;;5052318;28;20025;-33
2022/04/20 01:58:54;;;;;;;3.50;1.88;;;11.60;53.60;;;;;;5052660;28;20029;-29
2022/04/20 02:04:04;;;;;;;3.70;2.05;;;11.50;53.50;;;;;;5052122;28;20538;-31
2022/04/20 02:06:29;;;;;;;3.10;2.10;;;11.50;53.40;;;;;;5052175;28;20017;-30
2022/04/20 02:08:55;;;;;;;2.67;1.73;;;11.50;53.40;;;;;;5052245;28;20025;-37
2022/04/20 02:11:20;;;;;;;2.75;1.63;;;11.40;53.90;;;;;;5051586;28;20108;-33
2022/04/20 02:13:46;;;;;;;2.00;1.80;;;11.40;53.30;;;;;;5051882;28;20074;-33
2022/04/20 02:16:11;;;;;;;3.13;1.70;;;11.40;53.20;;;;;;5052520;28;20443;-30
2022/04/20 02:18:37;;;;;;;2.42;1.70;;;11.40;53.20;;;;;;5052047;28;20484;-30
2022/04/20 02:21:03;;;;;;;3.35;1.70;;;11.40;53.10;;;;;;5051968;28;20049;-30
2022/04/20 02:23:28;;;;;;;2.33;1.90;;;11.40;53.10;;;;;;5052004;28;20052;-30
2022/04/20 02:25:54;;;;;;;5.07;1.73;;;11.40;53.10;;;;;;5052275;28;20021;-30
2022/04/20 02:28:20;;;;;;;2.53;1.70;;;11.30;53.00;;;;;;5051910;28;20108;-31
2022/04/20 02:30:45;;;;;;;2.63;1.83;;;11.30;53.00;;;;;;5052074;28;20024;-31
2022/04/20 02:33:11;;;;;;;1.92;1.70;;;11.30;53.00;;;;;;5052006;28;20166;-31
2022/04/20 02:35:39;;;;;;;2.28;1.70;;;11.30;52.90;;;;;;5052289;28;20036;-31
2022/04/20 02:38:06;;;;;;;2.33;1.73;;;11.20;52.90;;;;;;5051781;28;20032;-30
2022/04/20 02:40:32;;;;;;;2.47;1.70;;;11.20;52.90;;;;;;5033708;28;20052;-37
2022/04/20 02:42:58;;;;;;;2.00;1.80;;;11.20;52.90;;;;;;5033825;28;20021;-33
2022/04/20 02:45:23;;;;;;;2.15;1.50;;;11.20;52.90;;;;;;5051842;28;20021;-30
2022/04/20 02:47:49;;;;;;;1.88;1.70;;;11.20;52.90;;;;;;5051830;28;20035;-33
2022/04/20 02:50:15;;;;;;;4.72;2.10;;;11.20;52.90;;;;;;5051977;28;20029;-33
2022/04/20 02:52:40;;;;;;;1.90;1.50;;;11.20;53.50;;;;;;5033915;28;20511;-30
2022/04/20 02:55:07;;;;;;;2.20;1.70;;;11.20;53.00;;;;;;5051802;28;20025;-29
2022/04/20 02:57:34;;;;;;;2.00;1.77;;;11.10;52.90;;;;;;5051839;28;20045;-29
2022/04/20 03:00:00;;;;;;;2.35;1.90;;;11.10;52.90;;;;;;5052019;28;20029;-32
2022/04/20 03:02:26;;;;;;;1.65;1.52;;;11.10;52.90;;;;;;5052192;28;20530;-30
2022/04/20 03:04:51;;;;;;;2.03;1.83;;;11.10;52.90;;;;;;5051933;28;20028;-31
2022/04/20 03:07:17;;;;;;;3.67;1.60;;;11.10;52.90;;;;;;5052092;28;20380;-29
2022/04/20 03:09:43;;;;;;;3.17;1.63;;;11.10;52.90;;;;;;5051488;28;20040;-29
2022/04/20 03:12:10;;;;;;;3.05;1.90;;;11.10;52.80;;;;;;5033739;28;20017;-29
2022/04/20 03:14:35;;;;;;;2.47;1.70;;;11.10;52.80;;;;;;5051844;28;20477;-28
2022/04/20 03:17:01;;;;;;;2.95;1.77;;;11.10;52.80;;;;;;5051399;28;20025;-29
2022/04/20 03:19:26;;;;;;;3.10;1.80;;;11.10;52.70;;;;;;5051407;28;20025;-34
2022/04/20 03:21:52;;;;;;;2.67;1.80;;;11.00;52.70;;;;;;5052034;28;20013;-33
2022/04/20 03:24:18;;;;;;;3.45;1.85;;;11.00;52.70;;;;;;5055105;28;20043;-31
2022/04/20 03:26:43;;;;;;;2.22;1.60;;;11.00;52.80;;;;;;5055331;28;20017;-32
2022/04/20 03:29:09;;;;;;;2.63;1.95;;;11.00;52.90;;;;;;5055062;28;20071;-35
2022/04/20 03:31:38;;;;;;;1.73;1.60;;;10.90;52.90;;;;;;5054871;28;20428;-30
2022/04/20 03:34:04;;;;;;;2.45;1.70;;;10.90;53.00;;;;;;5055027;28;20021;-30
2022/04/20 03:36:30;;;;;;;1.70;1.60;;;10.80;53.10;;;;;;5055144;28;20369;-30
2022/04/20 03:38:56;;;;;;;2.13;1.80;;;10.80;53.20;;;;;;5055184;28;20063;-31
2022/04/20 03:41:22;;;;;;;2.20;2.00;;;10.70;53.20;;;;;;5055116;28;20456;-28
2022/04/20 03:43:48;;;;;;;3.53;1.77;;;10.70;53.30;;;;;;5055184;28;20473;-30
2022/04/20 03:46:14;;;;;;;2.08;1.70;;;10.70;53.40;;;;;;5054831;28;20511;-33
2022/04/20 03:48:40;;;;;;;2.72;1.80;;;10.70;53.50;;;;;;5054726;28;20025;-30
2022/04/20 03:51:06;;;;;;;4.30;1.83;;;10.60;53.50;;;;;;5036650;28;20494;-29
2022/04/20 03:53:31;;;;;;;2.13;1.88;;;10.60;53.60;;;;;;5054583;28;20029;-30
2022/04/20 03:55:57;;;;;;;4.10;1.73;;;10.60;53.60;;;;;;5054883;28;20029;-29
2022/04/20 03:58:22;;;;;;;2.75;1.75;;;10.60;53.60;;;;;;5036446;28;20118;-34
2022/04/20 04:00:48;;;;;;;1.65;1.55;;;10.60;53.70;;;;;;5036586;28;20036;-35
2022/04/20 04:03:14;;;;;;;1.92;1.73;;;10.50;53.60;;;;;;5054211;28;20028;-30
2022/04/20 04:05:40;;;;;;;2.40;1.67;;;10.50;53.70;;;;;;5054612;28;20465;-29
2022/04/20 04:08:06;;;;;;;2.33;1.67;;;10.50;53.80;;;;;;5054442;28;20021;-29
2022/04/20 04:10:32;;;;;;;3.05;1.70;;;10.50;53.80;;;;;;5036596;28;20451;-30
2022/04/20 04:12:57;;;;;;;1.70;1.50;;;10.40;53.70;;;;;;5054700;28;20060;-32
2022/04/20 04:15:23;;;;;;;2.38;1.63;;;10.50;53.90;;;;;;5054292;28;20025;-35
2022/04/20 04:17:54;;;;;;;3.00;1.70;;;10.40;53.90;;;;;;5054239;28;20041;-35
2022/04/20 04:20:21;;;;;;;1.77;1.63;;;10.40;53.90;;;;;;5054636;28;20025;-32
2022/04/20 04:22:47;;;;;;;1.77;1.58;;;10.40;53.90;;;;;;5054014;28;20037;-30
2022/04/20 04:25:13;;;;;;;2.03;1.63;;;10.40;53.90;;;;;;5036144;28;20017;-29
2022/04/20 04:27:38;;;;;;;3.58;1.55;;;10.40;54.00;;;;;;5053965;28;20032;-30
2022/04/20 04:30:05;;;;;;;2.85;1.80;;;10.40;54.00;;;;;;5053995;28;20056;-29
2022/04/20 04:32:31;;;;;;;3.35;1.70;;;10.40;54.00;;;;;;5053628;28;20025;-29
2022/04/20 04:34:56;;;;;;;3.65;1.75;;;10.40;54.00;;;;;;5054166;28;20024;-33
2022/04/20 04:37:22;;;;;;;2.08;1.50;;;10.30;54.00;;;;;;5053648;28;20025;-36
2022/04/20 04:39:48;;;;;;;2.08;1.63;;;10.30;54.00;;;;;;5035808;28;20437;-33
2022/04/20 04:42:13;;;;;;;2.15;1.60;;;10.30;54.00;;;;;;5053918;28;20442;-42
2022/04/20 04:44:39;;;;;;;3.63;1.48;;;10.30;54.00;;;;;;5053455;28;20017;-32
2022/04/20 04:49:49;;;;;;;2.92;1.50;;;10.30;54.00;;;;;;5053736;28;20672;-30
2022/04/20 04:52:15;;;;;;;1.80;1.60;;;10.30;54.00;;;;;;5035614;28;20048;-29
2022/04/20 04:54:41;;;;;;;4.00;1.65;;;10.30;54.00;;;;;;5053520;28;20051;-33
2022/04/20 04:57:07;;;;;;;2.78;1.60;;;10.30;54.10;;;;;;5035398;28;20509;-32
2022/04/20 04:59:35;;;;;;;2.72;1.60;;;10.30;54.20;;;;;;5053291;28;20020;-30
2022/04/20 05:02:00;;;;;;;4.80;1.75;;;10.30;54.20;;;;;;5053278;28;20025;-32
2022/04/20 05:04:26;;;;;;;2.97;1.58;;;10.30;54.20;;;;;;5053148;28;20017;-39
2022/04/20 05:06:51;;;;;;;3.03;1.73;;;10.30;54.20;;;;;;5035376;28;20120;-29
2022/04/20 05:09:17;;;;;;;2.13;1.77;;;10.30;54.20;;;;;;5053626;28;20017;-31
2022/04/20 05:11:43;;;;;;;2.00;1.70;;;10.30;54.30;;;;;;5053189;28;20029;-30
2022/04/20 05:14:09;;;;;;;5.03;1.60;;;10.30;54.30;;;;;;5052980;28;20075;-31
2022/04/20 05:16:34;;;;;;;3.05;1.60;;;10.30;54.30;;;;;;5052919;28;20036;-31
2022/04/20 05:19:00;;;;;;;2.15;1.50;;;10.30;54.30;;;;;;5053146;28;20021;-32
2022/04/20 05:21:25;;;;;;;2.78;1.80;;;10.30;54.40;;;;;;5053235;28;20028;-33
2022/04/20 05:23:51;;;;;;;3.80;1.67;;;10.30;54.30;;;;;;5052898;28;20144;-30
2022/04/20 05:26:16;;;;;;;3.15;1.63;;;10.30;54.30;;;;;;5053518;28;20104;-36
2022/04/20 05:28:42;;;;;;;2.33;1.60;;;10.30;54.40;;;;;;5052926;28;20055;-32
2022/04/20 05:31:07;;;;;;;2.05;1.52;;;10.30;54.30;;;;;;5052986;28;20032;-29
2022/04/20 05:33:34;;;;;;;1.60;1.50;;;10.40;54.40;;;;;;5034938;28;20036;-29
2022/04/20 05:36:00;;;;;;;2.33;1.40;;;10.40;54.30;;;;;;5052867;28;20025;-31
2022/04/20 05:43:53;;;;;;;1.60;1.48;;;10.50;54.10;;;;;;5052698;28;20040;-31
2022/04/20 05:46:18;;;;;;;2.72;1.30;;;10.50;54.00;;;;;;5051957;28;20021;-30
2022/04/20 05:48:44;;;;;;;1.73;1.45;;;10.60;54.00;;;;;;5052317;28;20052;-30
2022/04/20 05:51:10;;;;;;;1.70;1.27;;;10.60;54.00;;;;;;5052285;28;20032;-29
2022/04/20 05:53:36;;;;;;;2.25;1.40;;;10.60;53.90;;;;;;5052490;28;20079;-30
2022/04/20 05:56:04;;;;;;;2.72;1.40;;;10.60;53.80;;;;;;5052280;28;20383;-32
2022/04/20 05:58:29;;;;;;;3.53;1.58;;;10.70;53.80;;;;;;5052392;28;20388;-28
2022/04/20 06:00:55;;;;;;;1.63;1.40;;;10.70;53.80;;;;;;5052324;28;20135;-28
2022/04/20 06:03:21;;;;;;;4.15;1.60;;;10.70;53.70;;;;;;5052240;28;20017;-29
2022/04/20 06:05:46;;;;;;;2.20;1.50;;;10.80;53.70;;;;;;5051958;28;20024;-29
2022/04/20 06:08:12;;;;;;;3.85;1.60;;;10.80;53.60;;;;;;5052174;28;20152;-35
2022/04/20 06:10:37;;;;;;;1.33;1.20;;;10.90;53.70;;;;;;5052275;28;20025;-29
2022/04/20 06:13:03;;;;;;;2.25;1.33;;;10.90;53.50;;;;;;5052003;28;20032;-29
2022/04/20 06:15:29;;;;;;;1.70;1.30;;;11.00;53.50;;;;;;5051973;28;20044;-29
2022/04/20 06:17:54;;;;;;;2.10;1.33;;;11.00;53.40;;;;;;5052017;28;20055;-28
2022/04/20 06:20:21;;;;;;;2.42;1.60;;;11.00;53.20;;;;;;5052191;28;20443;-31
2022/04/20 06:22:47;;;;;;;2.33;1.35;;;11.10;53.20;;;;;;5051719;28;20045;-29
2022/04/20 06:25:12;;;;;;;2.20;1.48;;;11.10;53.10;;;;;;5052026;28;20021;-29
2022/04/20 06:27:38;;;;;;;2.08;1.42;;;11.10;53.00;;;;;;5052035;28;20075;-29
2022/04/20 06:30:04;;;;;;;3.83;1.42;;;11.20;53.00;;;;;;5052063;28;20029;-30
2022/04/20 06:32:29;;;;;;;2.65;1.33;;;11.20;52.90;;;;;;5052258;28;20491;-31
2022/04/20 06:34:55;;;;;;;4.03;1.38;;;11.30;52.80;;;;;;5051972;28;20022;-30
2022/04/20 06:37:23;;;;;;;4.90;1.45;;;11.30;52.70;;;;;;5051629;28;20039;-32
2022/04/20 06:39:51;;;;;;;2.13;1.15;;;11.30;52.80;;;;;;5052941;28;20074;-29
2022/04/20 06:42:18;;;;;;;1.77;1.30;;;11.30;52.80;;;;;;5051816;28;20040;-33
2022/04/20 06:44:44;;;;;;;3.00;1.40;;;11.40;52.80;;;;;;5051649;28;20041;-29
2022/04/20 06:47:10;;;;;;;2.22;1.23;;;11.40;52.70;;;;;;5051681;28;20532;-34
2022/04/20 06:49:35;;;;;;;1.65;1.30;;;11.50;52.60;;;;;;5051960;28;20025;-29
2022/04/20 07:00:17;;;;;;;2.28;1.30;;;11.60;52.20;;;;;;5055411;28;20036;-35
2022/04/20 07:02:43;;;;;;;1.88;1.58;;;11.70;52.30;;;;;;5055645;28;20402;-34
2022/04/20 07:05:09;;;;;;;1.52;1.40;;;11.70;52.10;;;;;;5055225;28;20025;-30
2022/04/20 07:07:35;;;;;;;2.42;1.70;;;11.70;52.00;;;;;;5055264;28;20078;-29
2022/04/20 07:10:05;;;;;;;1.42;1.15;;;11.70;52.00;;;;;;5055552;28;20017;-33
2022/04/20 07:12:30;;;;;;;2.95;1.40;;;11.70;51.90;;;;;;5055373;28;20033;-34
2022/04/20 07:14:56;;;;;;;1.63;1.40;;;11.80;52.00;;;;;;5055234;28;20494;-30
2022/04/20 07:17:21;;;;;;;3.10;1.23;;;11.90;51.90;;;;;;5055028;28;20107;-33
2022/04/20 07:19:47;;;;;;;2.63;1.48;;;12.00;51.80;;;;;;5055074;28;20021;-32
2022/04/20 07:22:13;;;;;;;2.50;1.48;;;12.00;51.80;;;;;;5054948;28;20404;-29
2022/04/20 07:24:38;;;;;;;3.10;1.52;;;12.10;51.80;;;;;;5054942;28;20025;-32
2022/04/20 07:27:04;;;;;;;2.95;1.38;;;12.20;51.80;;;;;;5055023;28;20059;-30
2022/04/20 07:29:30;;;;;;;2.58;1.55;;;12.30;51.70;;;;;;5054749;28;20388;-29
2022/04/20 07:31:55;;;;;;;5.30;1.50;;;12.30;51.80;;;;;;5054694;28;20013;-30
2022/04/20 07:34:21;;;;;;;1.65;1.30;;;12.40;51.80;;;;;;5054618;28;20519;-32
2022/04/20 07:36:49;;;;;;;1.50;1.40;;;12.40;51.60;;;;;;5054793;28;20369;-32
2022/04/20 07:39:15;;;;;;;1.95;1.50;;;12.50;51.60;;;;;;5054956;28;20032;-34
2022/04/20 07:41:40;;;;;;;3.55;1.45;;;12.60;51.60;;;;;;5054950;28;20082;-30
2022/04/20 07:44:06;;;;;;;4.00;1.70;;;12.60;51.60;;;;;;5055268;28;20040;-30
2022/04/20 07:46:31;;;;;;;2.10;1.50;;;12.70;51.60;;;;;;5055107;28;20052;-29
2022/04/20 07:48:57;;;;;;;1.73;1.40;;;12.70;51.50;;;;;;5054894;28;20075;-30
2022/04/20 07:51:23;;;;;;;3.05;1.40;;;12.80;51.50;;;;;;5054890;28;20098;-33
2022/04/20 07:53:48;;;;;;;2.85;1.42;;;12.90;51.50;;;;;;5054767;28;20392;-33
2022/04/20 07:56:14;;;;;;;1.63;1.50;;;13.00;51.50;;;;;;5036643;28;20468;-30
2022/04/20 07:58:39;;;;;;;5.75;1.73;;;13.10;51.50;;;;;;5054548;28;20075;-32
2022/04/20 08:01:05;;;;;;;4.72;1.50;;;13.10;51.40;;;;;;5054438;28;20017;-28
2022/04/20 08:03:31;;;;;;;1.17;1.10;;;13.20;51.30;;;;;;5054384;28;20078;-30
2022/04/20 08:05:59;;;;;;;3.15;1.45;;;13.30;51.30;;;;;;5054290;28;20061;-30
2022/04/20 08:08:25;;;;;;;3.92;1.65;;;13.30;51.20;;;;;;5053552;28;20435;-29
2022/04/20 08:10:51;;;;;;;1.35;1.10;;;13.40;51.10;;;;;;5054042;28;20155;-32
2022/04/20 08:16:00;;;;;;;1.50;1.40;;;13.50;50.90;;;;;;5054217;28;20031;-29
2022/04/20 08:18:27;;;;;;;3.08;1.50;;;13.60;50.70;;;;;;5053990;28;20025;-33
2022/04/20 08:20:53;;;;;;;1.70;1.27;;;13.70;50.70;;;;;;5036081;28;20037;-29
2022/04/20 08:23:19;;;;;;;3.03;1.60;;;13.80;50.50;;;;;;5035879;28;20175;-31
2022/04/20 08:25:45;;;;;;;1.23;1.13;;;13.90;50.30;;;;;;5035967;28;20041;-30
2022/04/20 08:28:12;;;;;;;1.90;1.10;;;14.00;50.30;;;;;;5053865;28;20048;-38
2022/04/20 08:30:39;;;;;;;7.20;1.40;;;14.00;50.00;;;;;;5053706;28;20120;-29
2022/04/20 08:33:08;;;;;;;3.35;1.45;;;14.00;49.90;;;;;;5053959;28;20029;-30
2022/04/20 08:35:35;;;;;;;3.85;1.35;;;14.10;49.80;;;;;;5053622;28;20074;-39
2022/04/20 08:38:01;;;;;;;1.83;1.40;;;14.20;49.70;;;;;;5053616;28;20138;-33
2022/04/20 08:40:29;;;;;;;2.70;1.20;;;14.30;49.60;;;;;;5035599;28;20025;-31
2022/04/20 08:42:55;;;;;;;1.65;1.10;;;14.30;49.50;;;;;;5053657;28;20036;-30
2022/04/20 08:45:21;;;;;;;1.55;1.20;;;14.40;49.30;;;;;;5053448;28;20056;-31
2022/04/20 08:47:49;;;;;;;2.22;1.20;;;14.50;49.10;;;;;;5053650;28;20071;-30
2022/04/20 08:50:15;;;;;;;2.78;1.30;;;14.60;49.00;;;;;;5053409;28;20036;-32
2022/04/20 08:52:46;;;;;;;1.63;1.20;;;14.60;48.70;;;;;;5053385;28;20032;-30
2022/04/20 08:55:15;;;;;;;1.40;1.25;;;14.60;48.70;;;;;;5053665;28;20056;-33
2022/04/20 08:57:46;;;;;;;1.98;1.35;;;14.70;48.70;;;;;;5053238;28;20024;-32
2022/04/20 09:00:21;;;;;;;2.15;1.35;;;14.70;48.60;;;;;;5053400;28;20060;-31
2022/04/20 09:02:52;;;;;;;2.65;1.30;;;14.80;48.50;;;;;;5035730;28;20028;-32
2022/04/20 09:05:17;;;;;;;1.42;1.20;;;14.90;48.30;;;;;;5035873;28;20047;-31
2022/04/20 09:07:43;;;;;;;2.33;1.50;;;14.90;48.30;;;;;;5053264;28;20112;-30
2022/04/20 09:10:09;;;;;;;3.63;1.65;;;15.00;48.20;;;;;;5053057;28;20120;-33
2022/04/20 09:12:41;;;;;;;4.70;1.70;;;15.00;48.10;;;;;;5053010;28;20147;-30
2022/04/20 09:15:09;;;;;;;2.40;1.33;;;15.00;47.90;;;;;;5052913;28;20025;-36
2022/04/20 09:17:45;;;;;;;2.35;1.50;;;15.10;47.90;;;;;;5034726;28;20025;-30
2022/04/20 09:20:17;;;;;;;1.55;1.35;;;15.10;47.80;;;;;;5053034;28;20021;-31
2022/04/20 09:23:15;;;;;;;1.67;1.35;;;15.20;47.70;;;;;;5052750;28;20151;-32
2022/04/20 09:25:47;;;;;;;2.60;1.40;;;15.30;47.50;;;;;;5052907;28;20025;-31
2022/04/20 09:28:13;;;;;;;1.70;1.17;;;15.20;47.30;;;;;;5053009;28;20040;-33
2022/04/20 09:30:41;;;;;;;3.08;1.42;;;15.20;47.30;;;;;;5052684;28;20025;-33
2022/04/20 09:33:08;;;;;;;1.80;1.20;;;15.20;47.40;;;;;;5052559;28;20040;-30
2022/04/20 09:35:48;;;;;;;2.10;1.40;;;15.30;47.50;;;;;;5052762;28;20052;-30
2022/04/20 09:38:18;;;;;;;5.47;1.60;;;15.30;47.20;;;;;;5052421;28;20162;-32
2022/04/20 09:40:43;;;;;;;5.10;1.30;;;15.40;47.30;;;;;;5052321;28;20024;-32
2022/04/20 09:43:19;;;;;;;1.70;1.25;;;15.50;47.30;;;;;;5052889;28;20032;-30
2022/04/20 09:46:02;;;;;;;2.92;1.50;;;15.50;47.10;;;;;;5052800;28;20025;-30
2022/04/20 09:51:19;;;;;;;1.58;1.40;;;15.70;47.10;;;;;;5052415;28;20040;-31
2022/04/20 09:53:48;;;;;;;1.25;1.10;;;15.70;47.00;;;;;;5052618;28;20024;-32
2022/04/20 09:56:24;;;;;;;3.10;1.45;;;15.80;47.00;;;;;;5052501;28;20421;-30
2022/04/20 09:59:01;;;;;;;3.10;1.40;;;15.90;47.10;;;;;;5052092;28;20032;-30
2022/04/20 10:01:31;;;;;;;2.63;1.50;;;15.90;46.60;;;;;;5052385;28;20028;-35
2022/04/20 10:03:58;;;;;;;2.60;1.45;;;15.90;46.60;;;;;;5052412;28;20111;-30
2022/04/20 10:06:24;;;;;;;2.08;1.48;;;15.90;46.60;;;;;;5052132;28;20025;-31
2022/04/20 10:08:50;;;;;;;1.88;1.38;;;15.90;46.60;;;;;;5052301;28;20392;-30
2022/04/20 10:11:16;;;;;;;1.95;1.30;;;16.00;46.60;;;;;;5052068;28;20052;-36
2022/04/20 10:13:43;;;;;;;2.75;1.20;;;16.00;46.40;;;;;;5052201;28;20389;-33
2022/04/20 10:16:12;;;;;;;1.83;1.30;;;16.10;46.20;;;;;;5052388;28;20140;-32
2022/04/20 10:18:44;;;;;;;2.13;1.10;;;16.20;46.00;;;;;;5051970;28;20025;-33
2022/04/20 10:21:11;;;;;;;1.55;1.33;;;16.20;45.90;;;;;;5052061;28;20041;-33
2022/04/20 10:23:43;;;;;;;1.40;1.30;;;16.20;45.80;;;;;;5051929;28;20041;-31
2022/04/20 10:26:10;;;;;;;1.23;1.13;;;16.30;45.70;;;;;;5052335;28;20057;-33
2022/04/20 10:28:48;;;;;;;1.83;1.52;;;16.40;45.60;;;;;;5051846;28;20033;-37
2022/04/20 10:31:42;;;;;;;1.25;1.10;;;16.40;45.40;;;;;;5053386;28;20067;-31
2022/04/20 10:34:12;;;;;;;;;;;16.50;45.30;;;;;;5056822;28;20020;-31
2022/04/20 10:36:38;;;;;;;2.15;1.40;;;16.50;45.40;;;;;;5056071;28;20280;-33
2022/04/20 10:39:23;;;;;;;1.60;1.30;;;16.40;45.50;;;;;;5055735;28;20040;-34
2022/04/20 10:42:11;;;;;;;1.60;1.40;;;16.50;45.50;;;;;;5054832;28;20124;-31
2022/04/20 10:44:58;;;;;;;1.83;1.40;;;16.50;45.40;;;;;;5056277;28;20079;-30
2022/04/20 10:47:29;;;;;;;1.55;1.45;;;16.70;45.40;;;;;;5056020;28;20186;-33
2022/04/20 10:50:21;;;;;;;2.03;1.35;;;16.70;45.40;;;;;;5056071;28;20017;-31
2022/04/20 10:53:06;;;;;;;2.92;1.33;;;16.70;45.30;;;;;;5055641;28;20116;-36
2022/04/20 10:55:34;;;;;;;1.42;1.33;;;16.80;45.30;;;;;;5055899;28;20032;-45
2022/04/20 10:58:05;;;;;;;1.48;1.38;;;16.90;45.20;;;;;;5055685;28;20528;-46
2022/04/20 11:00:36;;;;;;;1.65;1.23;;;16.90;44.90;;;;;;5055448;28;20071;-46
2022/04/20 11:03:06;;;;;;;2.30;1.45;;;17.00;44.80;;;;;;5055661;28;20021;-46
2022/04/20 11:05:33;;;;;;;1.42;1.20;;;17.00;45.40;;;;;;5055416;28;20029;-47
2022/04/20 11:08:12;;;;;;;1.33;1.20;;;17.00;44.90;;;;;;5037753;28;20037;-44
2022/04/20 11:10:43;;;;;;;1.92;1.40;;;17.00;44.80;;;;;;5055303;28;20112;-46
2022/04/20 11:19:11;;;;;;;2.13;1.45;;;17.20;44.60;;;;;;5055205;28;20564;-46
2022/04/20 11:21:51;;;;;;;4.32;1.30;;;17.30;44.50;;;;;;5054779;28;20484;-45
2022/04/20 11:24:27;;;;;;;1.40;1.20;;;17.40;44.50;;;;;;5055182;28;20060;-46
2022/04/20 11:26:53;;;;;;;1.67;1.00;;;17.50;44.30;;;;;;5055048;28;20059;-46
2022/04/20 11:29:24;;;;;;;3.63;1.25;;;17.50;44.20;;;;;;5055027;28;20029;-46
2022/04/20 11:31:51;;;;;;;1.85;1.17;;;17.60;44.10;;;;;;5054906;28;20108;-46
2022/04/20 11:34:20;;;;;;;1.48;1.23;;;17.60;43.90;;;;;;5054867;28;20044;-45
2022/04/20 11:36:48;;;;;;;1.98;1.50;;;17.70;43.90;;;;;;5037287;28;20437;-44
2022/04/20 11:39:15;;;;;;;2.28;1.52;;;17.80;43.90;;;;;;5054792;28;20033;-44
2022/04/20 11:41:52;;;;;;;1.70;1.60;;;17.80;43.80;;;;;;5054802;28;20549;-44
2022/04/20 11:44:20;;;;;;;2.58;1.40;;;17.80;43.90;;;;;;5054039;28;20047;-44
2022/04/20 11:46:46;;;;;;;1.75;1.60;;;17.80;43.90;;;;;;5054700;28;20103;-44
2022/04/20 11:49:12;;;;;;;2.42;1.27;;;17.90;43.90;;;;;;5054706;28;20171;-44
2022/04/20 11:51:43;;;;;;;1.33;1.23;;;17.90;44.40;;;;;;5055005;28;20496;-44
2022/04/20 11:54:09;;;;;;;2.33;1.55;;;18.00;43.60;;;;;;5036846;28;20033;-46
2022/04/20 11:56:41;;;;;;;1.40;1.30;;;18.00;43.60;;;;;;5054629;28;20025;-45
2022/04/20 11:59:08;;;;;;;4.03;1.42;;;18.10;43.70;;;;;;5055132;28;20067;-45
2022/04/20 12:01:36;;;;;;;2.67;1.30;;;18.10;43.60;;;;;;5054593;28;20021;-46
2022/04/20 12:04:13;;;;;;;1.30;1.20;;;18.20;43.50;;;;;;5054847;28;20337;-38
2022/04/20 12:06:52;;;;;;;1.42;1.33;;;18.20;43.40;;;;;;5054567;28;20408;-38
2022/04/20 12:09:21;;;;;;;2.72;1.25;;;18.20;43.30;;;;;;5054451;28;20025;-37
2022/04/20 12:11:50;;;;;;;1.35;1.20;;;18.30;43.30;;;;;;5054308;28;20061;-38
2022/04/20 12:14:16;;;;;;;2.30;1.02;;;18.40;43.30;;;;;;5054229;28;20091;-37
2022/04/20 12:16:41;;;;;;;3.33;1.20;;;18.40;43.30;;;;;;5054647;28;20035;-37
2022/04/20 12:19:08;;;;;;;2.42;1.58;;;18.40;43.10;;;;;;5054293;28;20328;-38
2022/04/20 12:21:45;;;;;;;1.60;1.42;;;18.40;43.00;;;;;;5054050;28;20024;-39
2022/04/20 12:24:20;;;;;;;1.65;1.33;;;18.50;43.80;;;;;;5054392;28;20515;-37
2022/04/20 12:26:47;;;;;;;2.70;1.63;;;18.60;43.90;;;;;;5054128;28;20492;-38
2022/04/20 12:29:14;;;;;;;1.52;1.27;;;18.60;44.60;;;;;;5053913;28;20033;-37
2022/04/20 12:31:43;;;;;;;1.60;1.50;;;18.60;44.20;;;;;;5054159;28;20032;-39
2022/04/20 12:34:11;;;;;;;2.50;1.35;;;18.60;44.10;;;;;;5053913;28;20029;-39
2022/04/20 12:36:58;;;;;;;1.38;1.23;;;18.60;44.40;;;;;;5054261;28;20025;-39
2022/04/20 12:39:24;;;;;;;1.98;1.67;;;18.70;44.30;;;;;;5053583;28;20128;-38
2022/04/20 12:41:53;;;;;;;1.75;1.30;;;18.80;45.30;;;;;;5053476;28;20033;-38
2022/04/20 12:44:37;;;;;;;2.88;1.50;;;18.90;44.30;;;;;;5053606;28;20032;-38
2022/04/20 12:47:06;;;;;;;3.17;1.40;;;18.90;44.00;;;;;;5053742;28;20120;-39
2022/04/20 12:49:32;;;;;;;2.83;1.05;;;19.00;44.10;;;;;;5053865;28;20404;-39
2022/04/20 12:52:08;;;;;;;4.05;1.40;;;19.10;44.20;;;;;;5035601;28;20025;-39
2022/04/20 12:54:34;;;;;;;2.40;1.10;;;19.20;44.00;;;;;;5053225;28;20036;-39
2022/04/20 13:02:29;;;;;;;1.98;1.50;;;19.40;44.30;;;;;;5053247;28;20070;-39
2022/04/20 13:04:55;;;;;;;1.40;1.10;;;19.50;43.60;;;;;;5053175;28;20472;-39
2022/04/20 13:07:21;;;;;;;1.52;1.25;;;19.50;43.90;;;;;;5052789;28;20154;-39
2022/04/20 13:09:46;;;;;;;1.00;0.90;;;19.50;43.90;;;;;;5053155;28;20033;-38
2022/04/20 13:12:12;;;;;;;1.92;0.95;;;19.50;44.60;;;;;;5053191;28;20036;-39
2022/04/20 13:14:39;;;;;;;2.28;1.08;;;19.60;44.60;;;;;;5053495;28;20041;-40
2022/04/20 13:17:09;;;;;;;1.80;0.98;;;19.60;44.20;;;;;;5035169;28;20139;-40
2022/04/20 13:19:37;;;;;;;1.30;1.20;;;19.60;44.10;;;;;;5053042;28;20031;-39
2022/04/20 13:22:04;;;;;;;1.95;1.40;;;19.70;44.10;;;;;;5052820;28;20033;-38
2022/04/20 13:29:59;;;;;;;2.03;1.30;;;19.70;42.70;;;;;;5053098;28;20044;-40
2022/04/20 13:32:25;;;;;;;1.90;1.02;;;19.70;42.90;;;;;;5052991;28;20029;-41
2022/04/20 13:34:51;;;;;;;1.10;1.00;;;19.80;43.10;;;;;;5052935;28;20399;-40